sensor_id;sensor_type;location;lat;lon;timestamp;P1;durP1;ratioP1;P2;durP2;ratioP2
79375;SDS011;68846;53.150;18.136;2024-02-21T00:06:09;12.50;;;4.90;;
79375;SDS011;68846;53.150;18.136;2024-02-21T00:08:36;13.60;;;4.70;;
79375;SDS011;68846;53.150;18.136;2024-02-21T00:18:58;17.50;;;5.40;;
79375;SDS011;68846;53.150;18.136;2024-02-21T00:32:33;16.30;;;4.60;;
79375;SDS011;68846;53.150;18.136;2024-02-21T00:40:26;14.30;;;5.40;;
79375;SDS011;68846;53.150;18.136;2024-02-21T00:46:36;16.90;;;5.30;;
79375;SDS011;68846;53.150;18.136;2024-02-21T00:54:02;14.60;;;5.00;;
79375;SDS011;68846;53.150;18.136;2024-02-21T01:05:35;12.00;;;4.40;;
79375;SDS011;68846;53.150;18.136;2024-02-21T01:08:02;13.80;;;4.90;;
79375;SDS011;68846;53.150;18.136;2024-02-21T01:18:43;15.20;;;5.30;;
79375;SDS011;68846;53.150;18.136;2024-02-21T01:21:10;17.20;;;5.50;;
79375;SDS011;68846;53.150;18.136;2024-02-21T01:26:04;15.80;;;6.00;;
79375;SDS011;68846;53.150;18.136;2024-02-21T01:28:32;19.80;;;5.70;;
79375;SDS011;68846;53.150;18.136;2024-02-21T01:30:59;11.10;;;5.30;;
79375;SDS011;68846;53.150;18.136;2024-02-21T01:33:27;19.50;;;6.00;;
79375;SDS011;68846;53.150;18.136;2024-02-21T01:35:54;15.90;;;5.70;;
79375;SDS011;68846;53.150;18.136;2024-02-21T01:38:21;13.60;;;6.20;;
79375;SDS011;68846;53.150;18.136;2024-02-21T01:43:19;10.20;;;5.10;;
79375;SDS011;68846;53.150;18.136;2024-02-21T01:45:49;16.00;;;5.60;;
79375;SDS011;68846;53.150;18.136;2024-02-21T01:48:17;15.80;;;5.50;;
79375;SDS011;68846;53.150;18.136;2024-02-21T01:50:45;15.80;;;5.90;;
79375;SDS011;68846;53.150;18.136;2024-02-21T01:53:14;20.80;;;6.40;;
79375;SDS011;68846;53.150;18.136;2024-02-21T01:55:45;15.50;;;5.50;;
79375;SDS011;68846;53.150;18.136;2024-02-21T01:58:16;15.60;;;5.50;;
79375;SDS011;68846;53.150;18.136;2024-02-21T02:00:46;17.70;;;6.50;;
79375;SDS011;68846;53.150;18.136;2024-02-21T02:03:15;16.20;;;5.50;;
79375;SDS011;68846;53.150;18.136;2024-02-21T02:05:46;18.40;;;6.60;;
79375;SDS011;68846;53.150;18.136;2024-02-21T02:08:16;24.70;;;5.90;;
79375;SDS011;68846;53.150;18.136;2024-02-21T02:10:43;13.70;;;6.00;;
79375;SDS011;68846;53.150;18.136;2024-02-21T02:13:11;20.30;;;7.20;;
79375;SDS011;68846;53.150;18.136;2024-02-21T02:15:43;18.20;;;6.30;;
79375;SDS011;68846;53.150;18.136;2024-02-21T02:18:12;26.70;;;7.20;;
79375;SDS011;68846;53.150;18.136;2024-02-21T02:20:39;17.40;;;6.40;;
79375;SDS011;68846;53.150;18.136;2024-02-21T02:23:09;20.60;;;6.20;;
79375;SDS011;68846;53.150;18.136;2024-02-21T02:25:38;18.20;;;6.00;;
79375;SDS011;68846;53.150;18.136;2024-02-21T02:28:06;17.50;;;6.30;;
79375;SDS011;68846;53.150;18.136;2024-02-21T02:30:34;16.10;;;5.90;;
79375;SDS011;68846;53.150;18.136;2024-02-21T02:33:05;23.30;;;6.60;;
79375;SDS011;68846;53.150;18.136;2024-02-21T02:35:33;20.40;;;6.70;;
79375;SDS011;68846;53.150;18.136;2024-02-21T02:38:03;17.60;;;6.20;;
79375;SDS011;68846;53.150;18.136;2024-02-21T02:40:32;17.80;;;6.50;;
79375;SDS011;68846;53.150;18.136;2024-02-21T02:43:00;24.60;;;6.60;;
79375;SDS011;68846;53.150;18.136;2024-02-21T02:45:28;22.30;;;6.70;;
79375;SDS011;68846;53.150;18.136;2024-02-21T02:47:56;21.60;;;6.00;;
79375;SDS011;68846;53.150;18.136;2024-02-21T02:50:27;19.20;;;6.00;;
79375;SDS011;68846;53.150;18.136;2024-02-21T02:52:54;19.20;;;6.40;;
79375;SDS011;68846;53.150;18.136;2024-02-21T02:55:22;24.60;;;7.00;;
79375;SDS011;68846;53.150;18.136;2024-02-21T02:57:49;17.10;;;6.30;;
79375;SDS011;68846;53.150;18.136;2024-02-21T03:00:16;16.10;;;6.60;;
79375;SDS011;68846;53.150;18.136;2024-02-21T03:02:46;15.60;;;6.70;;
79375;SDS011;68846;53.150;18.136;2024-02-21T03:05:19;17.80;;;6.10;;
79375;SDS011;68846;53.150;18.136;2024-02-21T03:07:48;21.30;;;6.40;;
79375;SDS011;68846;53.150;18.136;2024-02-21T03:10:16;26.70;;;6.40;;
79375;SDS011;68846;53.150;18.136;2024-02-21T03:12:43;16.90;;;7.60;;
79375;SDS011;68846;53.150;18.136;2024-02-21T03:15:10;20.30;;;6.60;;
79375;SDS011;68846;53.150;18.136;2024-02-21T03:17:38;26.40;;;7.80;;
79375;SDS011;68846;53.150;18.136;2024-02-21T03:20:06;20.00;;;7.30;;
79375;SDS011;68846;53.150;18.136;2024-02-21T03:22:36;17.60;;;6.30;;
79375;SDS011;68846;53.150;18.136;2024-02-21T03:25:04;23.10;;;6.20;;
79375;SDS011;68846;53.150;18.136;2024-02-21T03:27:33;19.00;;;6.70;;
79375;SDS011;68846;53.150;18.136;2024-02-21T03:30:00;23.40;;;6.90;;
79375;SDS011;68846;53.150;18.136;2024-02-21T03:32:27;19.00;;;6.20;;
79375;SDS011;68846;53.150;18.136;2024-02-21T03:34:55;15.80;;;7.00;;
79375;SDS011;68846;53.150;18.136;2024-02-21T03:37:23;17.30;;;6.40;;
79375;SDS011;68846;53.150;18.136;2024-02-21T03:39:50;16.70;;;6.80;;
79375;SDS011;68846;53.150;18.136;2024-02-21T03:42:18;24.60;;;7.40;;
79375;SDS011;68846;53.150;18.136;2024-02-21T03:44:45;18.70;;;7.40;;
79375;SDS011;68846;53.150;18.136;2024-02-21T03:49:39;22.00;;;7.20;;
79375;SDS011;68846;53.150;18.136;2024-02-21T03:54:33;21.50;;;6.70;;
79375;SDS011;68846;53.150;18.136;2024-02-21T03:57:00;19.70;;;6.50;;
79375;SDS011;68846;53.150;18.136;2024-02-21T03:59:27;18.30;;;6.50;;
79375;SDS011;68846;53.150;18.136;2024-02-21T04:01:54;21.00;;;7.20;;
79375;SDS011;68846;53.150;18.136;2024-02-21T04:04:22;20.00;;;6.60;;
79375;SDS011;68846;53.150;18.136;2024-02-21T04:09:16;13.50;;;6.20;;
79375;SDS011;68846;53.150;18.136;2024-02-21T04:11:45;18.90;;;6.40;;
79375;SDS011;68846;53.150;18.136;2024-02-21T04:14:13;18.50;;;6.70;;
79375;SDS011;68846;53.150;18.136;2024-02-21T04:16:40;21.20;;;7.20;;
79375;SDS011;68846;53.150;18.136;2024-02-21T04:19:07;17.70;;;6.90;;
79375;SDS011;68846;53.150;18.136;2024-02-21T04:21:34;18.50;;;6.10;;
79375;SDS011;68846;53.150;18.136;2024-02-21T04:24:01;16.90;;;6.20;;
79375;SDS011;68846;53.150;18.136;2024-02-21T04:26:32;16.90;;;6.60;;
79375;SDS011;68846;53.150;18.136;2024-02-21T04:28:59;18.50;;;6.50;;
79375;SDS011;68846;53.150;18.136;2024-02-21T04:31:26;15.60;;;6.30;;
79375;SDS011;68846;53.150;18.136;2024-02-21T04:36:20;15.00;;;5.40;;
79375;SDS011;68846;53.150;18.136;2024-02-21T04:38:47;17.20;;;6.80;;
79375;SDS011;68846;53.150;18.136;2024-02-21T04:41:15;20.50;;;7.10;;
79375;SDS011;68846;53.150;18.136;2024-02-21T04:43:43;18.60;;;6.50;;
79375;SDS011;68846;53.150;18.136;2024-02-21T04:46:10;11.80;;;6.40;;
79375;SDS011;68846;53.150;18.136;2024-02-21T04:48:38;17.90;;;5.80;;
79375;SDS011;68846;53.150;18.136;2024-02-21T04:51:05;20.50;;;6.80;;
79375;SDS011;68846;53.150;18.136;2024-02-21T04:53:32;15.70;;;5.90;;
79375;SDS011;68846;53.150;18.136;2024-02-21T04:55:59;12.70;;;6.60;;
79375;SDS011;68846;53.150;18.136;2024-02-21T04:58:27;14.80;;;6.60;;
79375;SDS011;68846;53.150;18.136;2024-02-21T05:00:54;16.50;;;6.10;;
79375;SDS011;68846;53.150;18.136;2024-02-21T05:03:21;15.20;;;6.10;;
79375;SDS011;68846;53.150;18.136;2024-02-21T05:05:48;13.00;;;6.20;;
79375;SDS011;68846;53.150;18.136;2024-02-21T05:08:16;18.40;;;6.70;;
79375;SDS011;68846;53.150;18.136;2024-02-21T05:10:43;11.50;;;5.30;;
79375;SDS011;68846;53.150;18.136;2024-02-21T05:13:10;17.70;;;5.90;;
79375;SDS011;68846;53.150;18.136;2024-02-21T05:15:38;11.90;;;5.30;;
79375;SDS011;68846;53.150;18.136;2024-02-21T05:18:05;15.70;;;5.70;;
79375;SDS011;68846;53.150;18.136;2024-02-21T05:20:32;19.90;;;6.60;;
79375;SDS011;68846;53.150;18.136;2024-02-21T05:22:59;18.00;;;6.50;;
79375;SDS011;68846;53.150;18.136;2024-02-21T05:25:26;13.10;;;5.50;;
79375;SDS011;68846;53.150;18.136;2024-02-21T05:27:53;13.00;;;6.10;;
79375;SDS011;68846;53.150;18.136;2024-02-21T05:30:22;16.90;;;5.80;;
79375;SDS011;68846;53.150;18.136;2024-02-21T05:32:49;12.50;;;6.40;;
79375;SDS011;68846;53.150;18.136;2024-02-21T05:35:16;14.30;;;7.10;;
79375;SDS011;68846;53.150;18.136;2024-02-21T05:37:43;19.40;;;7.00;;
79375;SDS011;68846;53.150;18.136;2024-02-21T05:40:13;13.50;;;6.00;;
79375;SDS011;68846;53.150;18.136;2024-02-21T05:42:40;17.40;;;6.80;;
79375;SDS011;68846;53.150;18.136;2024-02-21T05:45:09;13.70;;;6.20;;
79375;SDS011;68846;53.150;18.136;2024-02-21T05:47:37;14.20;;;6.00;;
79375;SDS011;68846;53.150;18.136;2024-02-21T05:50:05;16.20;;;6.20;;
79375;SDS011;68846;53.150;18.136;2024-02-21T05:52:32;12.70;;;5.60;;
79375;SDS011;68846;53.150;18.136;2024-02-21T05:55:00;16.80;;;5.90;;
79375;SDS011;68846;53.150;18.136;2024-02-21T05:57:27;12.70;;;6.50;;
79375;SDS011;68846;53.150;18.136;2024-02-21T06:02:21;13.40;;;6.20;;
79375;SDS011;68846;53.150;18.136;2024-02-21T06:04:48;24.60;;;7.30;;
79375;SDS011;68846;53.150;18.136;2024-02-21T06:07:15;18.80;;;7.70;;
79375;SDS011;68846;53.150;18.136;2024-02-21T06:09:44;17.90;;;7.40;;
79375;SDS011;68846;53.150;18.136;2024-02-21T06:12:11;24.40;;;8.90;;
79375;SDS011;68846;53.150;18.136;2024-02-21T06:14:38;24.40;;;8.50;;
79375;SDS011;68846;53.150;18.136;2024-02-21T06:17:05;24.70;;;8.00;;
79375;SDS011;68846;53.150;18.136;2024-02-21T06:19:32;21.00;;;8.20;;
79375;SDS011;68846;53.150;18.136;2024-02-21T06:22:00;21.70;;;7.70;;
79375;SDS011;68846;53.150;18.136;2024-02-21T06:24:27;18.70;;;9.40;;
79375;SDS011;68846;53.150;18.136;2024-02-21T06:26:54;19.60;;;7.10;;
79375;SDS011;68846;53.150;18.136;2024-02-21T06:31:48;15.00;;;6.70;;
79375;SDS011;68846;53.150;18.136;2024-02-21T06:34:15;16.80;;;7.50;;
79375;SDS011;68846;53.150;18.136;2024-02-21T06:36:44;20.80;;;8.10;;
79375;SDS011;68846;53.150;18.136;2024-02-21T06:39:12;17.10;;;7.20;;
79375;SDS011;68846;53.150;18.136;2024-02-21T06:41:39;21.40;;;8.00;;
79375;SDS011;68846;53.150;18.136;2024-02-21T06:44:07;20.10;;;9.80;;
79375;SDS011;68846;53.150;18.136;2024-02-21T06:49:01;21.30;;;8.80;;
79375;SDS011;68846;53.150;18.136;2024-02-21T06:51:32;28.00;;;8.70;;
79375;SDS011;68846;53.150;18.136;2024-02-21T06:54:00;22.40;;;7.70;;
79375;SDS011;68846;53.150;18.136;2024-02-21T06:56:27;21.50;;;7.60;;
79375;SDS011;68846;53.150;18.136;2024-02-21T06:58:57;16.70;;;7.60;;
79375;SDS011;68846;53.150;18.136;2024-02-21T07:01:26;23.50;;;8.60;;
79375;SDS011;68846;53.150;18.136;2024-02-21T07:06:20;20.00;;;7.40;;
79375;SDS011;68846;53.150;18.136;2024-02-21T07:08:47;19.20;;;7.90;;
79375;SDS011;68846;53.150;18.136;2024-02-21T07:11:14;22.30;;;8.00;;
79375;SDS011;68846;53.150;18.136;2024-02-21T07:13:41;18.50;;;7.50;;
79375;SDS011;68846;53.150;18.136;2024-02-21T07:16:08;18.00;;;7.50;;
79375;SDS011;68846;53.150;18.136;2024-02-21T07:18:35;23.90;;;8.20;;
79375;SDS011;68846;53.150;18.136;2024-02-21T07:21:03;22.90;;;9.30;;
79375;SDS011;68846;53.150;18.136;2024-02-21T07:23:30;23.40;;;9.40;;
79375;SDS011;68846;53.150;18.136;2024-02-21T07:25:58;17.10;;;7.80;;
79375;SDS011;68846;53.150;18.136;2024-02-21T07:28:25;18.00;;;7.80;;
79375;SDS011;68846;53.150;18.136;2024-02-21T07:30:52;21.80;;;8.00;;
79375;SDS011;68846;53.150;18.136;2024-02-21T07:33:19;14.90;;;7.50;;
79375;SDS011;68846;53.150;18.136;2024-02-21T07:35:46;20.90;;;9.20;;
79375;SDS011;68846;53.150;18.136;2024-02-21T07:38:13;18.00;;;7.20;;
79375;SDS011;68846;53.150;18.136;2024-02-21T07:41:07;17.60;;;7.80;;
79375;SDS011;68846;53.150;18.136;2024-02-21T07:43:34;21.00;;;7.00;;
79375;SDS011;68846;53.150;18.136;2024-02-21T07:50:58;22.60;;;7.10;;
79375;SDS011;68846;53.150;18.136;2024-02-21T07:53:25;20.80;;;7.70;;
79375;SDS011;68846;53.150;18.136;2024-02-21T07:55:52;17.80;;;7.40;;
79375;SDS011;68846;53.150;18.136;2024-02-21T07:58:23;17.80;;;6.70;;
79375;SDS011;68846;53.150;18.136;2024-02-21T08:00:51;18.00;;;7.60;;
79375;SDS011;68846;53.150;18.136;2024-02-21T08:08:14;19.90;;;7.80;;
79375;SDS011;68846;53.150;18.136;2024-02-21T08:10:46;20.60;;;6.40;;
79375;SDS011;68846;53.150;18.136;2024-02-21T08:13:13;24.50;;;6.80;;
79375;SDS011;68846;53.150;18.136;2024-02-21T08:15:42;21.60;;;8.00;;
79375;SDS011;68846;53.150;18.136;2024-02-21T08:18:09;19.20;;;7.40;;
79375;SDS011;68846;53.150;18.136;2024-02-21T08:20:36;14.30;;;7.00;;
79375;SDS011;68846;53.150;18.136;2024-02-21T08:23:03;19.60;;;7.60;;
79375;SDS011;68846;53.150;18.136;2024-02-21T08:30:27;13.50;;;6.50;;
79375;SDS011;68846;53.150;18.136;2024-02-21T08:32:54;17.60;;;6.80;;
79375;SDS011;68846;53.150;18.136;2024-02-21T08:35:21;20.70;;;7.50;;
79375;SDS011;68846;53.150;18.136;2024-02-21T08:37:49;19.30;;;6.40;;
79375;SDS011;68846;53.150;18.136;2024-02-21T08:40:19;14.70;;;6.60;;
79375;SDS011;68846;53.150;18.136;2024-02-21T08:42:47;16.40;;;7.40;;
79375;SDS011;68846;53.150;18.136;2024-02-21T08:45:16;16.20;;;6.60;;
79375;SDS011;68846;53.150;18.136;2024-02-21T08:47:43;15.70;;;6.30;;
79375;SDS011;68846;53.150;18.136;2024-02-21T08:50:11;14.10;;;6.70;;
79375;SDS011;68846;53.150;18.136;2024-02-21T08:52:38;16.00;;;7.30;;
79375;SDS011;68846;53.150;18.136;2024-02-21T08:55:05;13.90;;;6.50;;
79375;SDS011;68846;53.150;18.136;2024-02-21T08:57:59;13.50;;;6.90;;
79375;SDS011;68846;53.150;18.136;2024-02-21T09:00:31;13.90;;;6.10;;
79375;SDS011;68846;53.150;18.136;2024-02-21T09:02:58;17.10;;;6.60;;
79375;SDS011;68846;53.150;18.136;2024-02-21T09:05:26;16.40;;;5.90;;
79375;SDS011;68846;53.150;18.136;2024-02-21T09:07:53;15.50;;;5.90;;
79375;SDS011;68846;53.150;18.136;2024-02-21T09:10:21;18.70;;;6.50;;
79375;SDS011;68846;53.150;18.136;2024-02-21T09:12:48;18.00;;;6.30;;
79375;SDS011;68846;53.150;18.136;2024-02-21T09:15:15;22.50;;;8.30;;
79375;SDS011;68846;53.150;18.136;2024-02-21T09:17:42;15.40;;;6.10;;
79375;SDS011;68846;53.150;18.136;2024-02-21T09:20:09;11.20;;;5.40;;
79375;SDS011;68846;53.150;18.136;2024-02-21T09:26:46;16.00;;;6.10;;
79375;SDS011;68846;53.150;18.136;2024-02-21T09:29:39;14.70;;;5.60;;
79375;SDS011;68846;53.150;18.136;2024-02-21T09:32:07;12.40;;;5.80;;
79375;SDS011;68846;53.150;18.136;2024-02-21T09:34:34;15.80;;;6.40;;
79375;SDS011;68846;53.150;18.136;2024-02-21T09:37:01;15.30;;;6.60;;
79375;SDS011;68846;53.150;18.136;2024-02-21T09:39:28;12.70;;;5.80;;
79375;SDS011;68846;53.150;18.136;2024-02-21T09:42:05;16.00;;;6.60;;
79375;SDS011;68846;53.150;18.136;2024-02-21T09:44:36;13.60;;;6.60;;
79375;SDS011;68846;53.150;18.136;2024-02-21T09:47:10;11.90;;;6.20;;
79375;SDS011;68846;53.150;18.136;2024-02-21T09:49:44;16.50;;;6.80;;
79375;SDS011;68846;53.150;18.136;2024-02-21T09:52:12;16.80;;;5.70;;
79375;SDS011;68846;53.150;18.136;2024-02-21T09:54:41;15.80;;;6.40;;
79375;SDS011;68846;53.150;18.136;2024-02-21T09:57:11;13.50;;;6.20;;
79375;SDS011;68846;53.150;18.136;2024-02-21T09:59:39;16.00;;;5.60;;
79375;SDS011;68846;53.150;18.136;2024-02-21T10:02:08;13.00;;;6.50;;
79375;SDS011;68846;53.150;18.136;2024-02-21T10:04:36;13.30;;;7.20;;
79375;SDS011;68846;53.150;18.136;2024-02-21T10:07:03;12.20;;;5.20;;
79375;SDS011;68846;53.150;18.136;2024-02-21T10:09:30;11.40;;;5.50;;
79375;SDS011;68846;53.150;18.136;2024-02-21T10:12:11;13.50;;;6.30;;
79375;SDS011;68846;53.150;18.136;2024-02-21T10:14:38;10.80;;;5.90;;
79375;SDS011;68846;53.150;18.136;2024-02-21T10:17:06;13.00;;;5.60;;
79375;SDS011;68846;53.150;18.136;2024-02-21T10:19:36;10.80;;;5.60;;
79375;SDS011;68846;53.150;18.136;2024-02-21T10:22:07;9.70;;;5.10;;
79375;SDS011;68846;53.150;18.136;2024-02-21T10:24:35;10.80;;;5.50;;
79375;SDS011;68846;53.150;18.136;2024-02-21T10:27:08;12.50;;;6.00;;
79375;SDS011;68846;53.150;18.136;2024-02-21T10:29:38;13.60;;;6.00;;
79375;SDS011;68846;53.150;18.136;2024-02-21T10:34:39;11.30;;;5.90;;
79375;SDS011;68846;53.150;18.136;2024-02-21T10:37:09;11.80;;;5.60;;
79375;SDS011;68846;53.150;18.136;2024-02-21T10:39:39;9.50;;;5.20;;
79375;SDS011;68846;53.150;18.136;2024-02-21T10:47:09;13.90;;;5.90;;
79375;SDS011;68846;53.150;18.136;2024-02-21T10:49:41;9.40;;;5.80;;
79375;SDS011;68846;53.150;18.136;2024-02-21T10:52:15;15.10;;;6.10;;
79375;SDS011;68846;53.150;18.136;2024-02-21T10:54:52;12.60;;;6.10;;
79375;SDS011;68846;53.150;18.136;2024-02-21T10:57:22;13.30;;;6.30;;
79375;SDS011;68846;53.150;18.136;2024-02-21T10:59:51;12.30;;;5.90;;
79375;SDS011;68846;53.150;18.136;2024-02-21T11:02:47;12.20;;;5.70;;
79375;SDS011;68846;53.150;18.136;2024-02-21T11:05:14;12.60;;;6.40;;
79375;SDS011;68846;53.150;18.136;2024-02-21T11:07:42;12.70;;;5.80;;
79375;SDS011;68846;53.150;18.136;2024-02-21T11:10:25;14.30;;;6.30;;
79375;SDS011;68846;53.150;18.136;2024-02-21T11:13:04;11.70;;;5.00;;
79375;SDS011;68846;53.150;18.136;2024-02-21T11:15:42;16.10;;;6.40;;
79375;SDS011;68846;53.150;18.136;2024-02-21T11:26:24;10.90;;;5.60;;
79375;SDS011;68846;53.150;18.136;2024-02-21T11:28:59;13.20;;;6.10;;
79375;SDS011;68846;53.150;18.136;2024-02-21T11:31:40;9.60;;;5.50;;
79375;SDS011;68846;53.150;18.136;2024-02-21T11:34:10;12.40;;;5.70;;
79375;SDS011;68846;53.150;18.136;2024-02-21T11:37:13;14.10;;;5.70;;
79375;SDS011;68846;53.150;18.136;2024-02-21T11:39:48;13.40;;;6.30;;
79375;SDS011;68846;53.150;18.136;2024-02-21T11:42:15;15.00;;;6.80;;
79375;SDS011;68846;53.150;18.136;2024-02-21T11:44:42;11.50;;;6.50;;
79375;SDS011;68846;53.150;18.136;2024-02-21T11:47:09;12.70;;;6.60;;
79375;SDS011;68846;53.150;18.136;2024-02-21T11:49:38;13.50;;;5.90;;
79375;SDS011;68846;53.150;18.136;2024-02-21T11:52:12;12.10;;;6.00;;
79375;SDS011;68846;53.150;18.136;2024-02-21T11:54:42;10.00;;;5.70;;
79375;SDS011;68846;53.150;18.136;2024-02-21T11:57:10;12.20;;;6.70;;
79375;SDS011;68846;53.150;18.136;2024-02-21T11:59:42;16.50;;;6.90;;
79375;SDS011;68846;53.150;18.136;2024-02-21T12:02:09;10.70;;;6.40;;
79375;SDS011;68846;53.150;18.136;2024-02-21T12:04:37;9.50;;;6.50;;
79375;SDS011;68846;53.150;18.136;2024-02-21T12:07:05;10.90;;;5.70;;
79375;SDS011;68846;53.150;18.136;2024-02-21T12:09:34;10.90;;;5.40;;
79375;SDS011;68846;53.150;18.136;2024-02-21T12:12:05;13.00;;;5.50;;
79375;SDS011;68846;53.150;18.136;2024-02-21T12:14:33;11.20;;;5.20;;
79375;SDS011;68846;53.150;18.136;2024-02-21T12:17:02;10.20;;;5.90;;
79375;SDS011;68846;53.150;18.136;2024-02-21T12:19:32;10.40;;;6.00;;
79375;SDS011;68846;53.150;18.136;2024-02-21T12:22:00;13.00;;;7.00;;
79375;SDS011;68846;53.150;18.136;2024-02-21T12:24:28;11.50;;;5.20;;
79375;SDS011;68846;53.150;18.136;2024-02-21T12:26:56;11.80;;;5.90;;
79375;SDS011;68846;53.150;18.136;2024-02-21T12:29:25;12.70;;;5.90;;
79375;SDS011;68846;53.150;18.136;2024-02-21T12:31:52;10.90;;;5.60;;
79375;SDS011;68846;53.150;18.136;2024-02-21T12:34:23;9.50;;;5.40;;
79375;SDS011;68846;53.150;18.136;2024-02-21T12:36:51;12.60;;;5.60;;
79375;SDS011;68846;53.150;18.136;2024-02-21T12:39:18;12.70;;;5.90;;
79375;SDS011;68846;53.150;18.136;2024-02-21T12:41:45;13.90;;;6.50;;
79375;SDS011;68846;53.150;18.136;2024-02-21T12:44:12;16.00;;;6.20;;
79375;SDS011;68846;53.150;18.136;2024-02-21T12:46:40;10.60;;;6.10;;
79375;SDS011;68846;53.150;18.136;2024-02-21T12:49:07;10.80;;;5.10;;
79375;SDS011;68846;53.150;18.136;2024-02-21T12:51:34;13.50;;;5.90;;
79375;SDS011;68846;53.150;18.136;2024-02-21T12:54:02;11.60;;;5.80;;
79375;SDS011;68846;53.150;18.136;2024-02-21T12:56:32;9.60;;;6.00;;
79375;SDS011;68846;53.150;18.136;2024-02-21T12:58:59;13.00;;;5.90;;
79375;SDS011;68846;53.150;18.136;2024-02-21T13:01:26;12.20;;;5.80;;
79375;SDS011;68846;53.150;18.136;2024-02-21T13:03:54;10.90;;;5.70;;
79375;SDS011;68846;53.150;18.136;2024-02-21T13:06:23;12.30;;;5.90;;
79375;SDS011;68846;53.150;18.136;2024-02-21T13:08:51;10.60;;;6.10;;
79375;SDS011;68846;53.150;18.136;2024-02-21T13:11:18;12.30;;;5.90;;
79375;SDS011;68846;53.150;18.136;2024-02-21T13:13:46;12.30;;;6.90;;
79375;SDS011;68846;53.150;18.136;2024-02-21T13:16:13;11.90;;;6.50;;
79375;SDS011;68846;53.150;18.136;2024-02-21T13:18:40;9.00;;;6.00;;
79375;SDS011;68846;53.150;18.136;2024-02-21T13:21:09;13.40;;;6.20;;
79375;SDS011;68846;53.150;18.136;2024-02-21T13:23:37;15.20;;;6.60;;
79375;SDS011;68846;53.150;18.136;2024-02-21T13:26:04;11.70;;;7.00;;
79375;SDS011;68846;53.150;18.136;2024-02-21T13:28:31;15.20;;;6.80;;
79375;SDS011;68846;53.150;18.136;2024-02-21T13:30:58;13.30;;;6.30;;
79375;SDS011;68846;53.150;18.136;2024-02-21T13:33:25;12.10;;;6.30;;
79375;SDS011;68846;53.150;18.136;2024-02-21T13:35:52;12.80;;;6.20;;
79375;SDS011;68846;53.150;18.136;2024-02-21T13:38:45;13.80;;;7.20;;
79375;SDS011;68846;53.150;18.136;2024-02-21T13:50:32;13.90;;;7.30;;
79375;SDS011;68846;53.150;18.136;2024-02-21T13:52:59;14.60;;;7.30;;
79375;SDS011;68846;53.150;18.136;2024-02-21T13:58:44;12.80;;;6.60;;
79375;SDS011;68846;53.150;18.136;2024-02-21T14:01:11;15.20;;;6.70;;
79375;SDS011;68846;53.150;18.136;2024-02-21T14:03:38;14.10;;;7.10;;
79375;SDS011;68846;53.150;18.136;2024-02-21T14:06:05;13.30;;;6.90;;
79375;SDS011;68846;53.150;18.136;2024-02-21T14:08:32;13.30;;;7.20;;
79375;SDS011;68846;53.150;18.136;2024-02-21T14:22:13;12.60;;;6.80;;
79375;SDS011;68846;53.150;18.136;2024-02-21T14:24:40;12.70;;;6.30;;
79375;SDS011;68846;53.150;18.136;2024-02-21T14:30:52;14.10;;;6.30;;
79375;SDS011;68846;53.150;18.136;2024-02-21T14:44:30;10.40;;;6.70;;
79375;SDS011;68846;53.150;18.136;2024-02-21T14:46:57;13.80;;;6.90;;
79375;SDS011;68846;53.150;18.136;2024-02-21T14:49:24;17.50;;;7.50;;
79375;SDS011;68846;53.150;18.136;2024-02-21T14:51:54;12.00;;;6.40;;
79375;SDS011;68846;53.150;18.136;2024-02-21T14:54:21;13.00;;;7.00;;
79375;SDS011;68846;53.150;18.136;2024-02-21T14:56:49;16.80;;;7.30;;
79375;SDS011;68846;53.150;18.136;2024-02-21T14:59:16;14.30;;;7.30;;
79375;SDS011;68846;53.150;18.136;2024-02-21T15:01:43;13.10;;;6.70;;
79375;SDS011;68846;53.150;18.136;2024-02-21T15:04:10;12.20;;;6.90;;
79375;SDS011;68846;53.150;18.136;2024-02-21T15:06:37;15.10;;;6.90;;
79375;SDS011;68846;53.150;18.136;2024-02-21T15:09:05;13.20;;;7.00;;
79375;SDS011;68846;53.150;18.136;2024-02-21T15:11:34;14.00;;;7.30;;
79375;SDS011;68846;53.150;18.136;2024-02-21T15:14:01;13.30;;;6.50;;
79375;SDS011;68846;53.150;18.136;2024-02-21T15:16:28;16.70;;;8.20;;
79375;SDS011;68846;53.150;18.136;2024-02-21T15:18:56;12.60;;;6.80;;
79375;SDS011;68846;53.150;18.136;2024-02-21T15:21:23;14.10;;;6.80;;
79375;SDS011;68846;53.150;18.136;2024-02-21T15:23:50;15.60;;;6.60;;
79375;SDS011;68846;53.150;18.136;2024-02-21T15:26:17;15.00;;;7.90;;
79375;SDS011;68846;53.150;18.136;2024-02-21T15:28:44;12.70;;;6.40;;
79375;SDS011;68846;53.150;18.136;2024-02-21T15:31:19;16.40;;;7.20;;
79375;SDS011;68846;53.150;18.136;2024-02-21T15:33:50;12.30;;;6.90;;
79375;SDS011;68846;53.150;18.136;2024-02-21T15:36:19;15.40;;;7.70;;
79375;SDS011;68846;53.150;18.136;2024-02-21T15:38:47;13.60;;;7.20;;
79375;SDS011;68846;53.150;18.136;2024-02-21T15:41:14;12.50;;;7.20;;
79375;SDS011;68846;53.150;18.136;2024-02-21T15:43:42;16.20;;;7.50;;
79375;SDS011;68846;53.150;18.136;2024-02-21T15:46:12;14.80;;;7.10;;
79375;SDS011;68846;53.150;18.136;2024-02-21T15:48:39;16.50;;;7.60;;
79375;SDS011;68846;53.150;18.136;2024-02-21T15:51:07;14.00;;;7.30;;
79375;SDS011;68846;53.150;18.136;2024-02-21T15:53:34;18.30;;;7.90;;
79375;SDS011;68846;53.150;18.136;2024-02-21T15:56:01;18.00;;;8.20;;
79375;SDS011;68846;53.150;18.136;2024-02-21T15:58:30;16.70;;;8.40;;
79375;SDS011;68846;53.150;18.136;2024-02-21T16:00:59;20.90;;;8.50;;
79375;SDS011;68846;53.150;18.136;2024-02-21T16:03:26;15.60;;;8.40;;
79375;SDS011;68846;53.150;18.136;2024-02-21T16:05:54;16.80;;;8.30;;
79375;SDS011;68846;53.150;18.136;2024-02-21T16:08:21;14.00;;;7.80;;
79375;SDS011;68846;53.150;18.136;2024-02-21T16:10:48;15.00;;;7.50;;
79375;SDS011;68846;53.150;18.136;2024-02-21T16:13:16;19.20;;;8.20;;
79375;SDS011;68846;53.150;18.136;2024-02-21T16:16:09;13.40;;;8.40;;
79375;SDS011;68846;53.150;18.136;2024-02-21T16:18:37;16.30;;;8.20;;
79375;SDS011;68846;53.150;18.136;2024-02-21T16:21:04;13.00;;;7.70;;
79375;SDS011;68846;53.150;18.136;2024-02-21T16:23:32;16.20;;;8.10;;
79375;SDS011;68846;53.150;18.136;2024-02-21T16:25:59;15.40;;;8.00;;
79375;SDS011;68846;53.150;18.136;2024-02-21T16:28:27;15.40;;;7.70;;
79375;SDS011;68846;53.150;18.136;2024-02-21T16:30:54;17.00;;;8.00;;
79375;SDS011;68846;53.150;18.136;2024-02-21T16:33:23;14.80;;;8.60;;
79375;SDS011;68846;53.150;18.136;2024-02-21T16:35:54;16.30;;;8.10;;
79375;SDS011;68846;53.150;18.136;2024-02-21T16:38:21;19.00;;;8.10;;
79375;SDS011;68846;53.150;18.136;2024-02-21T16:40:49;16.10;;;6.80;;
79375;SDS011;68846;53.150;18.136;2024-02-21T16:43:16;14.90;;;8.00;;
79375;SDS011;68846;53.150;18.136;2024-02-21T16:45:44;19.10;;;7.90;;
79375;SDS011;68846;53.150;18.136;2024-02-21T16:48:11;17.20;;;9.00;;
79375;SDS011;68846;53.150;18.136;2024-02-21T16:50:39;21.30;;;8.40;;
79375;SDS011;68846;53.150;18.136;2024-02-21T16:53:06;17.60;;;8.70;;
79375;SDS011;68846;53.150;18.136;2024-02-21T16:55:33;21.60;;;8.70;;
79375;SDS011;68846;53.150;18.136;2024-02-21T16:58:00;17.80;;;8.70;;
79375;SDS011;68846;53.150;18.136;2024-02-21T17:00:29;16.90;;;9.00;;
79375;SDS011;68846;53.150;18.136;2024-02-21T17:02:57;17.20;;;8.80;;